sensor_id;sensor_type;location;lat;lon;timestamp;temperature;humidity
42803;DHT22;28447;48.682;9.022;2023-05-07T04:36:30;10.90;99.90
42803;DHT22;28447;48.682;9.022;2023-05-07T04:38:58;10.60;99.90
42803;DHT22;28447;48.682;9.022;2023-05-07T04:41:24;10.50;99.90
42803;DHT22;28447;48.682;9.022;2023-05-07T04:43:50;10.40;99.90
42803;DHT22;28447;48.682;9.022;2023-05-07T04:46:16;10.40;99.90
42803;DHT22;28447;48.682;9.022;2023-05-07T04:48:42;10.40;99.90
42803;DHT22;28447;48.682;9.022;2023-05-07T04:51:08;10.50;99.90
42803;DHT22;28447;48.682;9.022;2023-05-07T04:53:33;10.60;99.90
42803;DHT22;28447;48.682;9.022;2023-05-07T04:55:59;10.60;99.90
42803;DHT22;28447;48.682;9.022;2023-05-07T04:58:25;10.60;99.90
42803;DHT22;28447;48.682;9.022;2023-05-07T05:00:50;10.70;99.90
42803;DHT22;28447;48.682;9.022;2023-05-07T05:03:16;10.70;99.90
42803;DHT22;28447;48.682;9.022;2023-05-07T05:05:41;10.70;99.90
42803;DHT22;28447;48.682;9.022;2023-05-07T05:08:07;10.80;99.90
42803;DHT22;28447;48.682;9.022;2023-05-07T05:10:33;10.70;99.90
42803;DHT22;28447;48.682;9.022;2023-05-07T05:12:59;10.90;99.90
42803;DHT22;28447;48.682;9.022;2023-05-07T05:15:24;10.90;99.90
42803;DHT22;28447;48.682;9.022;2023-05-07T05:17:50;11.10;99.90
42803;DHT22;28447;48.682;9.022;2023-05-07T05:20:16;11.30;99.90
42803;DHT22;28447;48.682;9.022;2023-05-07T05:22:42;11.40;99.90
42803;DHT22;28447;48.682;9.022;2023-05-07T05:25:08;11.60;99.90
42803;DHT22;28447;48.682;9.022;2023-05-07T05:27:34;11.70;99.90
42803;DHT22;28447;48.682;9.022;2023-05-07T05:30:00;12.00;99.90
42803;DHT22;28447;48.682;9.022;2023-05-07T05:32:26;12.30;99.90
42803;DHT22;28447;48.682;9.022;2023-05-07T05:34:51;12.30;99.90
42803;DHT22;28447;48.682;9.022;2023-05-07T05:37:17;12.50;99.90
42803;DHT22;28447;48.682;9.022;2023-05-07T05:39:43;12.80;99.90
42803;DHT22;28447;48.682;9.022;2023-05-07T05:42:09;12.80;99.90
42803;DHT22;28447;48.682;9.022;2023-05-07T05:44:35;13.00;99.90
42803;DHT22;28447;48.682;9.022;2023-05-07T05:47:00;12.80;99.90
42803;DHT22;28447;48.682;9.022;2023-05-07T05:49:26;12.80;99.90
42803;DHT22;28447;48.682;9.022;2023-05-07T05:51:51;12.90;99.90
42803;DHT22;28447;48.682;9.022;2023-05-07T05:54:17;13.10;99.90
42803;DHT22;28447;48.682;9.022;2023-05-07T05:56:43;13.20;99.90
42803;DHT22;28447;48.682;9.022;2023-05-07T05:59:08;13.40;99.90
42803;DHT22;28447;48.682;9.022;2023-05-07T06:01:34;13.70;99.90
42803;DHT22;28447;48.682;9.022;2023-05-07T06:04:00;14.10;99.90
42803;DHT22;28447;48.682;9.022;2023-05-07T06:06:25;14.10;99.90
42803;DHT22;28447;48.682;9.022;2023-05-07T06:08:51;14.10;99.90
42803;DHT22;28447;48.682;9.022;2023-05-07T06:11:17;14.30;99.90
42803;DHT22;28447;48.682;9.022;2023-05-07T06:13:42;14.50;99.90
42803;DHT22;28447;48.682;9.022;2023-05-07T06:16:08;14.60;99.90
42803;DHT22;28447;48.682;9.022;2023-05-07T06:18:34;14.90;99.90
42803;DHT22;28447;48.682;9.022;2023-05-07T06:21:01;15.00;99.90
42803;DHT22;28447;48.682;9.022;2023-05-07T06:23:27;15.40;99.90
42803;DHT22;28447;48.682;9.022;2023-05-07T06:25:52;15.70;99.90
42803;DHT22;28447;48.682;9.022;2023-05-07T06:28:18;16.20;99.90
42803;DHT22;28447;48.682;9.022;2023-05-07T06:30:44;16.00;99.90
42803;DHT22;28447;48.682;9.022;2023-05-07T06:33:10;16.00;99.90
42803;DHT22;28447;48.682;9.022;2023-05-07T07:26:46;20.30;99.90
42803;DHT22;28447;48.682;9.022;2023-05-07T07:29:12;19.80;99.90
42803;DHT22;28447;48.682;9.022;2023-05-07T07:31:38;20.50;99.90
42803;DHT22;28447;48.682;9.022;2023-05-07T07:34:04;20.50;99.90
42803;DHT22;28447;48.682;9.022;2023-05-07T07:36:29;20.70;99.90
42803;DHT22;28447;48.682;9.022;2023-05-07T07:38:55;20.60;99.90
42803;DHT22;28447;48.682;9.022;2023-05-07T07:41:21;20.90;99.90
42803;DHT22;28447;48.682;9.022;2023-05-07T07:43:46;21.10;99.90
42803;DHT22;28447;48.682;9.022;2023-05-07T07:46:12;20.50;99.90
42803;DHT22;28447;48.682;9.022;2023-05-07T07:48:38;20.20;99.90
42803;DHT22;28447;48.682;9.022;2023-05-07T07:51:04;20.20;99.90
42803;DHT22;28447;48.682;9.022;2023-05-07T07:53:30;20.50;99.90
42803;DHT22;28447;48.682;9.022;2023-05-07T07:55:55;20.70;99.90
42803;DHT22;28447;48.682;9.022;2023-05-07T07:58:21;20.70;99.90
42803;DHT22;28447;48.682;9.022;2023-05-07T08:00:47;21.00;99.90
42803;DHT22;28447;48.682;9.022;2023-05-07T08:03:13;21.50;99.90
42803;DHT22;28447;48.682;9.022;2023-05-07T09:01:49;24.70;99.90
42803;DHT22;28447;48.682;9.022;2023-05-07T09:04:14;25.00;99.90
42803;DHT22;28447;48.682;9.022;2023-05-07T09:06:40;24.70;99.90
42803;DHT22;28447;48.682;9.022;2023-05-07T09:09:07;25.10;99.90
42803;DHT22;28447;48.682;9.022;2023-05-07T09:11:33;24.60;99.90
42803;DHT22;28447;48.682;9.022;2023-05-07T09:16:28;24.00;99.90
42803;DHT22;28447;48.682;9.022;2023-05-07T09:23:52;24.40;99.90
42803;DHT22;28447;48.682;9.022;2023-05-07T09:28:44;25.50;99.90
42803;DHT22;28447;48.682;9.022;2023-05-07T09:31:11;24.50;99.90
42803;DHT22;28447;48.682;9.022;2023-05-07T09:33:37;25.70;99.90
42803;DHT22;28447;48.682;9.022;2023-05-07T09:36:07;25.40;99.90
42803;DHT22;28447;48.682;9.022;2023-05-07T09:38:37;25.90;99.90
42803;DHT22;28447;48.682;9.022;2023-05-07T09:41:13;26.10;99.90
42803;DHT22;28447;48.682;9.022;2023-05-07T09:53:52;25.80;99.90
42803;DHT22;28447;48.682;9.022;2023-05-07T09:56:19;26.40;96.90
42803;DHT22;28447;48.682;9.022;2023-05-07T09:58:46;27.70;93.30
42803;DHT22;28447;48.682;9.022;2023-05-07T10:01:12;28.20;91.90
42803;DHT22;28447;48.682;9.022;2023-05-07T10:03:41;26.00;96.70
42803;DHT22;28447;48.682;9.022;2023-05-07T10:06:09;24.80;98.70
42803;DHT22;28447;48.682;9.022;2023-05-07T10:08:36;25.00;98.00
42803;DHT22;28447;48.682;9.022;2023-05-07T10:13:29;25.80;96.40
42803;DHT22;28447;48.682;9.022;2023-05-07T10:15:55;26.70;94.20
42803;DHT22;28447;48.682;9.022;2023-05-07T10:18:22;26.90;94.90
42803;DHT22;28447;48.682;9.022;2023-05-07T10:20:49;26.70;93.00
42803;DHT22;28447;48.682;9.022;2023-05-07T10:23:21;27.80;90.00
42803;DHT22;28447;48.682;9.022;2023-05-07T10:25:48;26.90;89.00
42803;DHT22;28447;48.682;9.022;2023-05-07T10:28:15;27.20;88.90
42803;DHT22;28447;48.682;9.022;2023-05-07T10:31:04;28.00;90.90
42803;DHT22;28447;48.682;9.022;2023-05-07T10:33:33;28.20;87.10
42803;DHT22;28447;48.682;9.022;2023-05-07T10:36:00;27.90;88.20
42803;DHT22;28447;48.682;9.022;2023-05-07T10:38:28;27.50;86.90
42803;DHT22;28447;48.682;9.022;2023-05-07T10:40:54;27.60;90.20
42803;DHT22;28447;48.682;9.022;2023-05-07T10:43:20;27.70;90.60
42803;DHT22;28447;48.682;9.022;2023-05-07T10:51:32;28.70;85.70
42803;DHT22;28447;48.682;9.022;2023-05-07T10:56:37;29.40;82.20
42803;DHT22;28447;48.682;9.022;2023-05-07T11:01:53;26.40;81.90
42803;DHT22;28447;48.682;9.022;2023-05-07T11:04:19;27.50;86.00
42803;DHT22;28447;48.682;9.022;2023-05-07T11:15:08;28.50;84.50
42803;DHT22;28447;48.682;9.022;2023-05-07T11:17:54;28.50;78.70
42803;DHT22;28447;48.682;9.022;2023-05-07T11:20:20;29.40;77.90
42803;DHT22;28447;48.682;9.022;2023-05-07T11:22:47;29.20;77.00
42803;DHT22;28447;48.682;9.022;2023-05-07T11:25:18;28.30;82.60
42803;DHT22;28447;48.682;9.022;2023-05-07T11:27:47;27.70;85.10
42803;DHT22;28447;48.682;9.022;2023-05-07T11:30:18;26.90;84.10
42803;DHT22;28447;48.682;9.022;2023-05-07T11:32:47;26.40;83.50
42803;DHT22;28447;48.682;9.022;2023-05-07T11:35:15;25.00;87.20
42803;DHT22;28447;48.682;9.022;2023-05-07T11:37:41;25.10;86.90
42803;DHT22;28447;48.682;9.022;2023-05-07T11:40:08;24.90;90.20
42803;DHT22;28447;48.682;9.022;2023-05-07T11:42:39;24.00;87.40
42803;DHT22;28447;48.682;9.022;2023-05-07T11:45:07;24.20;89.10
42803;DHT22;28447;48.682;9.022;2023-05-07T11:47:34;23.50;88.90
42803;DHT22;28447;48.682;9.022;2023-05-07T11:50:05;23.30;87.80
42803;DHT22;28447;48.682;9.022;2023-05-07T11:52:32;22.70;90.10
42803;DHT22;28447;48.682;9.022;2023-05-07T11:54:59;22.80;91.00
42803;DHT22;28447;48.682;9.022;2023-05-07T11:57:26;22.40;89.10
42803;DHT22;28447;48.682;9.022;2023-05-07T11:59:59;22.10;93.20
42803;DHT22;28447;48.682;9.022;2023-05-07T12:02:27;21.90;96.40
42803;DHT22;28447;48.682;9.022;2023-05-07T12:04:54;21.40;98.10
42803;DHT22;28447;48.682;9.022;2023-05-07T12:19:38;19.30;96.30
42803;DHT22;28447;48.682;9.022;2023-05-07T12:22:04;19.20;97.20
42803;DHT22;28447;48.682;9.022;2023-05-07T12:24:48;18.80;98.70
42803;DHT22;28447;48.682;9.022;2023-05-07T12:27:15;18.70;99.00
42803;DHT22;28447;48.682;9.022;2023-05-07T12:29:48;18.80;99.60
42803;DHT22;28447;48.682;9.022;2023-05-07T12:32:20;18.80;99.90
42803;DHT22;28447;48.682;9.022;2023-05-07T12:34:49;19.00;99.90
42803;DHT22;28447;48.682;9.022;2023-05-07T12:37:15;19.30;99.90
42803;DHT22;28447;48.682;9.022;2023-05-07T12:39:47;19.40;99.90
42803;DHT22;28447;48.682;9.022;2023-05-07T12:42:19;19.10;99.90
42803;DHT22;28447;48.682;9.022;2023-05-07T15:38:05;16.80;99.90
42803;DHT22;28447;48.682;9.022;2023-05-07T15:40:31;16.80;99.90
42803;DHT22;28447;48.682;9.022;2023-05-07T15:42:58;16.90;99.90
42803;DHT22;28447;48.682;9.022;2023-05-07T15:45:24;16.90;99.90
42803;DHT22;28447;48.682;9.022;2023-05-07T15:47:49;16.70;99.90
42803;DHT22;28447;48.682;9.022;2023-05-07T15:50:15;16.60;99.90
42803;DHT22;28447;48.682;9.022;2023-05-07T15:52:41;16.40;99.90
42803;DHT22;28447;48.682;9.022;2023-05-07T15:55:07;16.30;99.90
42803;DHT22;28447;48.682;9.022;2023-05-07T15:57:34;16.30;99.90
42803;DHT22;28447;48.682;9.022;2023-05-07T16:00:00;16.40;99.90
42803;DHT22;28447;48.682;9.022;2023-05-07T16:02:26;16.60;99.90
42803;DHT22;28447;48.682;9.022;2023-05-07T16:04:51;16.70;99.90
42803;DHT22;28447;48.682;9.022;2023-05-07T16:07:17;16.50;99.90
42803;DHT22;28447;48.682;9.022;2023-05-07T16:09:44;16.20;99.90
42803;DHT22;28447;48.682;9.022;2023-05-07T16:12:10;16.10;99.90
42803;DHT22;28447;48.682;9.022;2023-05-07T16:14:36;16.30;99.90
42803;DHT22;28447;48.682;9.022;2023-05-07T16:17:03;16.30;99.90
42803;DHT22;28447;48.682;9.022;2023-05-07T16:19:29;16.50;99.90
42803;DHT22;28447;48.682;9.022;2023-05-07T16:21:54;16.50;99.90
42803;DHT22;28447;48.682;9.022;2023-05-07T16:24:20;16.40;99.90
42803;DHT22;28447;48.682;9.022;2023-05-07T16:26:46;16.50;99.90
42803;DHT22;28447;48.682;9.022;2023-05-07T16:29:11;16.60;99.90
42803;DHT22;28447;48.682;9.022;2023-05-07T16:31:37;16.60;99.90
42803;DHT22;28447;48.682;9.022;2023-05-07T16:34:03;16.80;99.90
42803;DHT22;28447;48.682;9.022;2023-05-07T16:36:29;16.90;99.90
42803;DHT22;28447;48.682;9.022;2023-05-07T16:38:55;16.80;99.90
42803;DHT22;28447;48.682;9.022;2023-05-07T16:41:21;16.70;99.90
42803;DHT22;28447;48.682;9.022;2023-05-07T16:43:47;16.80;99.90
42803;DHT22;28447;48.682;9.022;2023-05-07T16:46:13;16.70;99.90
42803;DHT22;28447;48.682;9.022;2023-05-07T16:48:38;16.70;99.90
42803;DHT22;28447;48.682;9.022;2023-05-07T16:51:04;16.70;99.90
42803;DHT22;28447;48.682;9.022;2023-05-07T16:53:31;16.80;99.90
42803;DHT22;28447;48.682;9.022;2023-05-07T16:55:57;16.60;99.90
42803;DHT22;28447;48.682;9.022;2023-05-07T16:58:23;16.70;99.90
42803;DHT22;28447;48.682;9.022;2023-05-07T17:00:48;16.80;99.90
42803;DHT22;28447;48.682;9.022;2023-05-07T17:03:14;16.70;99.90
42803;DHT22;28447;48.682;9.022;2023-05-07T17:05:40;16.80;99.90
42803;DHT22;28447;48.682;9.022;2023-05-07T17:08:06;16.60;99.90
42803;DHT22;28447;48.682;9.022;2023-05-07T17:10:31;16.50;99.90
42803;DHT22;28447;48.682;9.022;2023-05-07T17:12:57;16.60;99.90
42803;DHT22;28447;48.682;9.022;2023-05-07T17:15:23;16.40;99.90
42803;DHT22;28447;48.682;9.022;2023-05-07T17:17:49;16.30;99.90
42803;DHT22;28447;48.682;9.022;2023-05-07T17:20:14;16.30;99.90
42803;DHT22;28447;48.682;9.022;2023-05-07T17:22:40;16.20;99.90
42803;DHT22;28447;48.682;9.022;2023-05-07T17:25:06;16.20;99.90
42803;DHT22;28447;48.682;9.022;2023-05-07T17:27:32;16.20;99.90
42803;DHT22;28447;48.682;9.022;2023-05-07T17:29:59;16.20;99.90
42803;DHT22;28447;48.682;9.022;2023-05-07T17:32:24;16.10;99.90
42803;DHT22;28447;48.682;9.022;2023-05-07T17:34:50;16.10;99.90
42803;DHT22;28447;48.682;9.022;2023-05-07T17:37:16;16.10;99.90
42803;DHT22;28447;48.682;9.022;2023-05-07T17:39:42;16.10;99.90
42803;DHT22;28447;48.682;9.022;2023-05-07T17:42:07;16.00;99.90
42803;DHT22;28447;48.682;9.022;2023-05-07T17:44:34;16.00;99.90
42803;DHT22;28447;48.682;9.022;2023-05-07T17:46:59;15.90;99.90
42803;DHT22;28447;48.682;9.022;2023-05-07T17:49:25;16.00;99.90
42803;DHT22;28447;48.682;9.022;2023-05-07T17:51:51;16.00;99.90
42803;DHT22;28447;48.682;9.022;2023-05-07T17:54:17;15.90;99.90
42803;DHT22;28447;48.682;9.022;2023-05-07T17:56:43;16.00;99.90
42803;DHT22;28447;48.682;9.022;2023-05-07T17:59:09;15.80;99.90
42803;DHT22;28447;48.682;9.022;2023-05-07T18:01:35;15.80;99.90
42803;DHT22;28447;48.682;9.022;2023-05-07T18:04:01;15.70;99.90
42803;DHT22;28447;48.682;9.022;2023-05-07T18:06:28;15.80;99.90
42803;DHT22;28447;48.682;9.022;2023-05-07T18:08:53;15.70;99.90
42803;DHT22;28447;48.682;9.022;2023-05-07T18:11:21;15.70;99.90
42803;DHT22;28447;48.682;9.022;2023-05-07T18:13:47;15.70;99.90
42803;DHT22;28447;48.682;9.022;2023-05-07T18:16:13;15.80;99.90
42803;DHT22;28447;48.682;9.022;2023-05-07T18:18:40;15.70;99.90
42803;DHT22;28447;48.682;9.022;2023-05-07T18:21:05;15.60;99.90
42803;DHT22;28447;48.682;9.022;2023-05-07T18:23:31;15.60;99.90
42803;DHT22;28447;48.682;9.022;2023-05-07T18:26:00;15.50;99.90
42803;DHT22;28447;48.682;9.022;2023-05-07T18:28:25;15.40;99.90
42803;DHT22;28447;48.682;9.022;2023-05-07T18:30:51;15.40;99.90
42803;DHT22;28447;48.682;9.022;2023-05-07T18:33:17;15.40;99.90
42803;DHT22;28447;48.682;9.022;2023-05-07T18:35:42;15.40;99.90
42803;DHT22;28447;48.682;9.022;2023-05-07T18:38:09;15.30;99.90
42803;DHT22;28447;48.682;9.022;2023-05-07T18:40:35;15.40;99.90
42803;DHT22;28447;48.682;9.022;2023-05-07T18:43:00;15.30;99.90
42803;DHT22;28447;48.682;9.022;2023-05-07T18:45:32;15.30;99.90
42803;DHT22;28447;48.682;9.022;2023-05-07T18:47:57;15.30;99.90
42803;DHT22;28447;48.682;9.022;2023-05-07T18:50:23;15.30;99.90
42803;DHT22;28447;48.682;9.022;2023-05-07T18:52:49;15.30;99.90
42803;DHT22;28447;48.682;9.022;2023-05-07T18:55:15;15.40;99.90
42803;DHT22;28447;48.682;9.022;2023-05-07T18:57:41;15.40;99.90
42803;DHT22;28447;48.682;9.022;2023-05-07T19:00:10;15.50;99.90
42803;DHT22;28447;48.682;9.022;2023-05-07T19:02:36;15.60;99.90
42803;DHT22;28447;48.682;9.022;2023-05-07T19:05:03;15.60;99.90
42803;DHT22;28447;48.682;9.022;2023-05-07T19:07:29;15.50;99.90
42803;DHT22;28447;48.682;9.022;2023-05-07T19:09:55;15.40;99.90
42803;DHT22;28447;48.682;9.022;2023-05-07T19:12:21;15.30;99.90
42803;DHT22;28447;48.682;9.022;2023-05-07T19:14:47;15.20;99.90
42803;DHT22;28447;48.682;9.022;2023-05-07T19:17:13;15.10;99.90
42803;DHT22;28447;48.682;9.022;2023-05-07T19:19:40;15.10;99.90
42803;DHT22;28447;48.682;9.022;2023-05-07T19:22:06;15.20;99.90
42803;DHT22;28447;48.682;9.022;2023-05-07T19:24:32;15.30;99.90
42803;DHT22;28447;48.682;9.022;2023-05-07T19:26:58;15.30;99.90
42803;DHT22;28447;48.682;9.022;2023-05-07T19:29:24;15.20;99.90
42803;DHT22;28447;48.682;9.022;2023-05-07T19:31:50;15.00;99.90
42803;DHT22;28447;48.682;9.022;2023-05-07T19:34:15;14.90;99.90
42803;DHT22;28447;48.682;9.022;2023-05-07T19:36:41;14.90;99.90
42803;DHT22;28447;48.682;9.022;2023-05-07T19:39:07;14.90;99.90
42803;DHT22;28447;48.682;9.022;2023-05-07T19:41:32;14.90;99.90
42803;DHT22;28447;48.682;9.022;2023-05-07T19:43:58;15.00;99.90
42803;DHT22;28447;48.682;9.022;2023-05-07T19:46:24;15.00;99.90
42803;DHT22;28447;48.682;9.022;2023-05-07T19:48:50;15.00;99.90
42803;DHT22;28447;48.682;9.022;2023-05-07T19:51:15;15.00;99.90
42803;DHT22;28447;48.682;9.022;2023-05-07T19:53:41;15.00;99.90
42803;DHT22;28447;48.682;9.022;2023-05-07T19:56:08;14.90;99.90
42803;DHT22;28447;48.682;9.022;2023-05-07T19:58:34;14.90;99.90
42803;DHT22;28447;48.682;9.022;2023-05-07T20:01:00;14.90;99.90
42803;DHT22;28447;48.682;9.022;2023-05-07T20:03:27;15.00;99.90
42803;DHT22;28447;48.682;9.022;2023-05-07T20:05:53;15.00;99.90
42803;DHT22;28447;48.682;9.022;2023-05-07T20:08:19;15.10;99.90
42803;DHT22;28447;48.682;9.022;2023-05-07T20:10:45;15.20;99.90
42803;DHT22;28447;48.682;9.022;2023-05-07T20:13:11;15.10;99.90
42803;DHT22;28447;48.682;9.022;2023-05-07T20:15:37;15.00;99.90
42803;DHT22;28447;48.682;9.022;2023-05-07T20:18:03;15.00;99.90
42803;DHT22;28447;48.682;9.022;2023-05-07T20:20:29;15.10;99.90
42803;DHT22;28447;48.682;9.022;2023-05-07T20:22:54;15.10;99.90
42803;DHT22;28447;48.682;9.022;2023-05-07T20:25:20;14.90;99.90
42803;DHT22;28447;48.682;9.022;2023-05-07T20:27:46;14.90;99.90
42803;DHT22;28447;48.682;9.022;2023-05-07T20:30:12;14.90;99.90
42803;DHT22;28447;48.682;9.022;2023-05-07T20:32:38;14.80;99.90
42803;DHT22;28447;48.682;9.022;2023-05-07T20:35:04;14.70;99.90
42803;DHT22;28447;48.682;9.022;2023-05-07T20:37:33;14.80;99.90
42803;DHT22;28447;48.682;9.022;2023-05-07T20:40:00;14.70;99.90
42803;DHT22;28447;48.682;9.022;2023-05-07T20:42:26;14.70;99.90
42803;DHT22;28447;48.682;9.022;2023-05-07T20:44:52;14.80;99.90
42803;DHT22;28447;48.682;9.022;2023-05-07T20:47:18;14.80;99.90
42803;DHT22;28447;48.682;9.022;2023-05-07T20:49:51;14.80;99.90
42803;DHT22;28447;48.682;9.022;2023-05-07T20:52:18;14.70;99.90
42803;DHT22;28447;48.682;9.022;2023-05-07T20:54:44;14.70;99.90
42803;DHT22;28447;48.682;9.022;2023-05-07T20:57:12;14.80;99.90
42803;DHT22;28447;48.682;9.022;2023-05-07T20:59:38;14.80;99.90
42803;DHT22;28447;48.682;9.022;2023-05-07T21:02:05;14.80;99.90
42803;DHT22;28447;48.682;9.022;2023-05-07T21:04:31;14.80;99.90
42803;DHT22;28447;48.682;9.022;2023-05-07T21:06:58;14.80;99.90
42803;DHT22;28447;48.682;9.022;2023-05-07T21:09:24;14.80;99.90
42803;DHT22;28447;48.682;9.022;2023-05-07T21:11:49;14.80;99.90
42803;DHT22;28447;48.682;9.022;2023-05-07T21:14:15;14.80;99.90
42803;DHT22;28447;48.682;9.022;2023-05-07T21:16:40;14.80;99.90
42803;DHT22;28447;48.682;9.022;2023-05-07T21:19:07;14.80;99.90
42803;DHT22;28447;48.682;9.022;2023-05-07T21:21:33;14.80;99.90
42803;DHT22;28447;48.682;9.022;2023-05-07T21:23:59;14.90;99.90
42803;DHT22;28447;48.682;9.022;2023-05-07T21:26:24;14.80;99.90
42803;DHT22;28447;48.682;9.022;2023-05-07T21:28:51;14.80;99.90
42803;DHT22;28447;48.682;9.022;2023-05-07T21:31:16;14.70;99.90
42803;DHT22;28447;48.682;9.022;2023-05-07T21:33:42;14.70;99.90
42803;DHT22;28447;48.682;9.022;2023-05-07T21:36:08;14.70;99.90
42803;DHT22;28447;48.682;9.022;2023-05-07T21:38:36;14.70;99.90
42803;DHT22;28447;48.682;9.022;2023-05-07T21:41:01;14.70;99.90
42803;DHT22;28447;48.682;9.022;2023-05-07T21:43:27;14.70;99.90
42803;DHT22;28447;48.682;9.022;2023-05-07T21:45:53;14.60;99.90
42803;DHT22;28447;48.682;9.022;2023-05-07T21:48:18;14.60;99.90
42803;DHT22;28447;48.682;9.022;2023-05-07T21:50:47;14.60;99.90
42803;DHT22;28447;48.682;9.022;2023-05-07T21:53:13;14.60;99.90
42803;DHT22;28447;48.682;9.022;2023-05-07T21:55:38;14.60;99.90
42803;DHT22;28447;48.682;9.022;2023-05-07T21:58:04;14.60;99.90
